Time;durP1;ratioP1;P1;durP2;ratioP2;P2;SDS_P1;SDS_P2;PMS_P1;PMS_P2;Temp;Humidity;BMP_temperature;BMP_pressure;BME280_temperature;BME280_humidity;BME280_pressure;Samples;Min_cycle;Max_cycle;Signal;HPM_P1;HPM_P2
2022/04/24 00:00:30;;;;;;;38.78;24.13;;;;;;;;;;5056397;28;20021;-77
2022/04/24 00:02:57;;;;;;;37.20;24.30;;;;;;;;;;5073735;28;20029;-73
2022/04/24 00:05:22;;;;;;;35.20;23.58;;;;;;;;;;5057076;28;20113;-75
2022/04/24 00:07:47;;;;;;;38.22;23.85;;;;;;;;;;5074646;28;20044;-79
2022/04/24 00:10:12;;;;;;;46.80;29.38;;;;;;;;;;5056801;28;20029;-77
2022/04/24 00:12:39;;;;;;;42.90;27.88;;;;;;;;;;5075115;28;20028;-78
2022/04/24 00:15:06;;;;;;;40.58;24.73;;;;;;;;;;5040317;28;20016;-73
2022/04/24 00:17:31;;;;;;;39.08;23.27;;;;;;;;;;5074922;28;20032;-85
2022/04/24 00:19:57;;;;;;;37.80;23.33;;;;;;;;;;5074759;28;20069;-77
2022/04/24 00:22:22;;;;;;;34.95;22.85;;;;;;;;;;5056547;28;20381;-77
2022/04/24 00:24:49;;;;;;;37.63;21.88;;;;;;;;;;5074230;28;20028;-77
2022/04/24 00:27:14;;;;;;;38.13;22.98;;;;;;;;;;5074491;28;20048;-77
2022/04/24 00:29:39;;;;;;;32.38;21.75;;;;;;;;;;5074457;28;20017;-78
2022/04/24 00:32:05;;;;;;;34.42;22.50;;;;;;;;;;5074305;28;20059;-78
2022/04/24 00:34:31;;;;;;;34.22;20.63;;;;;;;;;;5056477;28;20484;-79
2022/04/24 00:37:00;;;;;;;32.50;20.38;;;;;;;;;;5074451;28;20163;-80
2022/04/24 00:39:25;;;;;;;31.27;20.95;;;;;;;;;;5074903;28;20106;-79
2022/04/24 00:41:51;;;;;;;30.67;20.00;;;;;;;;;;5074339;28;20060;-79
2022/04/24 00:44:17;;;;;;;29.60;20.17;;;;;;;;;;5074237;28;20476;-79
2022/04/24 00:47:06;;;;;;;32.25;20.35;;;;;;;;;;5074491;28;20395;-80
2022/04/24 00:49:31;;;;;;;31.88;20.52;;;;;;;;;;5056208;28;20851;-81
2022/04/24 00:51:58;;;;;;;29.85;19.85;;;;;;;;;;5056304;28;20046;-81
2022/04/24 00:54:23;;;;;;;27.05;18.63;;;;;;;;;;5074123;28;20029;-81
2022/04/24 00:56:49;;;;;;;28.02;19.08;;;;;;;;;;5074152;28;20415;-81
2022/04/24 00:59:14;;;;;;;28.58;19.35;;;;;;;;;;5074084;28;20078;-80
2022/04/24 01:01:42;;;;;;;31.25;18.42;;;;;;;;;;5074172;28;20048;-81
2022/04/24 01:04:09;;;;;;;27.88;18.20;;;;;;;;;;5073984;28;20028;-84
2022/04/24 01:06:39;;;;;;;25.67;17.98;;;;;;;;;;5073966;28;20020;-85
2022/04/24 01:09:23;;;;;;;24.17;17.23;;;;;;;;;;5073879;28;20042;-84
2022/04/24 01:11:49;;;;;;;24.23;17.80;;;;;;;;;;5073903;28;20380;-81
2022/04/24 01:14:22;;;;;;;23.80;17.25;;;;;;;;;;5073483;28;20074;-80
2022/04/24 01:16:48;;;;;;;28.60;18.23;;;;;;;;;;5073799;28;20039;-80
2022/04/24 01:19:14;;;;;;;27.73;18.90;;;;;;;;;;5055834;28;20119;-80
2022/04/24 01:21:43;;;;;;;25.55;18.00;;;;;;;;;;5073765;28;20040;-79
2022/04/24 01:24:09;;;;;;;25.92;17.30;;;;;;;;;;5073893;28;20114;-78
2022/04/24 01:26:34;;;;;;;22.88;16.25;;;;;;;;;;5073847;28;20033;-76
2022/04/24 01:29:06;;;;;;;25.45;16.67;;;;;;;;;;5073699;28;20475;-76
2022/04/24 01:31:32;;;;;;;21.67;15.73;;;;;;;;;;5073916;28;20032;-76
2022/04/24 01:33:57;;;;;;;23.05;15.60;;;;;;;;;;5071514;28;20051;-76
2022/04/24 01:36:22;;;;;;;21.80;15.20;;;;;;;;;;5073642;28;20803;-76
2022/04/24 01:38:48;;;;;;;19.13;14.70;;;;;;;;;;5073897;28;20027;-76
2022/04/24 01:41:14;;;;;;;23.77;17.02;;;;;;;;;;5055281;28;20067;-76
2022/04/24 01:43:41;;;;;;;21.42;14.88;;;;;;;;;;5072406;28;20019;-76
2022/04/24 01:46:07;;;;;;;22.00;15.07;;;;;;;;;;5055133;28;20071;-75
2022/04/24 01:48:35;;;;;;;21.85;15.07;;;;;;;;;;5054782;28;20029;-75
2022/04/24 01:51:03;;;;;;;19.80;14.02;;;;;;;;;;5055712;28;20071;-76
2022/04/24 01:53:28;;;;;;;21.75;14.25;;;;;;;;;;5055631;28;20021;-78
2022/04/24 01:55:56;;;;;;;21.90;15.13;;;;;;;;;;5073249;28;20024;-75
2022/04/24 01:58:21;;;;;;;18.55;14.75;;;;;;;;;;5073575;28;20071;-75
2022/04/24 02:00:47;;;;;;;18.92;14.65;;;;;;;;;;5073438;28;20040;-75
2022/04/24 02:03:12;;;;;;;19.70;13.85;;;;;;;;;;5073269;28;20059;-83
2022/04/24 02:05:44;;;;;;;19.77;14.00;;;;;;;;;;5073345;28;20025;-81
2022/04/24 02:08:10;;;;;;;18.73;13.95;;;;;;;;;;5073068;28;20040;-81
2022/04/24 02:10:37;;;;;;;16.95;13.27;;;;;;;;;;5071865;28;20020;-76
2022/04/24 02:13:03;;;;;;;17.48;13.70;;;;;;;;;;5072337;28;20563;-76
2022/04/24 02:15:28;;;;;;;18.48;12.55;;;;;;;;;;5072809;28;20093;-76
2022/04/24 02:17:55;;;;;;;15.18;11.75;;;;;;;;;;5055572;28;20372;-76
2022/04/24 02:20:21;;;;;;;16.63;12.18;;;;;;;;;;5073032;28;20016;-76
2022/04/24 02:22:46;;;;;;;15.10;11.52;;;;;;;;;;5072868;28;20033;-76
2022/04/24 02:25:17;;;;;;;18.33;12.10;;;;;;;;;;5073263;28;20096;-75
2022/04/24 02:27:43;;;;;;;16.23;11.88;;;;;;;;;;5077132;28;20270;-75
2022/04/24 02:30:09;;;;;;;16.05;11.95;;;;;;;;;;5058856;28;20046;-75
2022/04/24 02:32:38;;;;;;;15.50;12.07;;;;;;;;;;5059006;28;20039;-75
2022/04/24 02:35:04;;;;;;;17.38;11.40;;;;;;;;;;5072487;28;20115;-75
2022/04/24 02:37:32;;;;;;;13.25;11.43;;;;;;;;;;5058953;28;20598;-76
2022/04/24 02:39:57;;;;;;;17.42;12.13;;;;;;;;;;5058635;28;20081;-76
2022/04/24 02:42:27;;;;;;;16.42;11.65;;;;;;;;;;5076726;28;20123;-76
2022/04/24 02:44:52;;;;;;;16.52;11.80;;;;;;;;;;5059133;28;20036;-79
2022/04/24 02:47:20;;;;;;;15.75;12.63;;;;;;;;;;5076501;28;20036;-77
2022/04/24 02:49:45;;;;;;;16.63;11.77;;;;;;;;;;5076497;28;20064;-76
2022/04/24 02:52:10;;;;;;;14.80;11.60;;;;;;;;;;5058572;28;20101;-74
2022/04/24 02:54:36;;;;;;;14.95;11.57;;;;;;;;;;5058279;28;20016;-78
2022/04/24 02:57:02;;;;;;;14.57;11.07;;;;;;;;;;5058614;28;20090;-78
2022/04/24 02:59:29;;;;;;;14.65;10.70;;;;;;;;;;5058503;28;20028;-78
2022/04/24 03:01:55;;;;;;;14.57;10.75;;;;;;;;;;5058549;28;20033;-86
2022/04/24 03:04:23;;;;;;;16.73;11.00;;;;;;;;;;5076404;28;20017;-86
2022/04/24 03:06:49;;;;;;;14.63;10.93;;;;;;;;;;5076307;28;20043;-87
2022/04/24 03:09:14;;;;;;;14.63;11.30;;;;;;;;;;5058153;28;20062;-85
2022/04/24 03:11:50;;;;;;;14.73;11.35;;;;;;;;;;5076140;28;20056;-84
2022/04/24 03:14:15;;;;;;;13.07;11.18;;;;;;;;;;5076206;28;20027;-84
2022/04/24 03:16:46;;;;;;;14.05;10.35;;;;;;;;;;5058054;28;20017;-85
2022/04/24 03:19:12;;;;;;;13.57;10.38;;;;;;;;;;5075960;28;20020;-84
2022/04/24 03:21:37;;;;;;;10.35;9.25;;;;;;;;;;5075941;28;20074;-76
2022/04/24 03:24:02;;;;;;;13.57;10.70;;;;;;;;;;5041364;28;20115;-77
2022/04/24 03:26:28;;;;;;;12.90;9.98;;;;;;;;;;5057840;28;20083;-76
2022/04/24 03:28:53;;;;;;;12.15;10.00;;;;;;;;;;5058005;28;20036;-76
2022/04/24 03:31:24;;;;;;;15.90;10.52;;;;;;;;;;5075730;28;20023;-76
2022/04/24 03:33:52;;;;;;;13.18;10.75;;;;;;;;;;5075774;28;20126;-76
2022/04/24 03:36:18;;;;;;;13.35;9.55;;;;;;;;;;5074447;28;20460;-77
2022/04/24 03:38:43;;;;;;;15.68;10.63;;;;;;;;;;5075715;28;20150;-78
2022/04/24 03:41:09;;;;;;;14.23;11.07;;;;;;;;;;5075154;28;20115;-74
2022/04/24 03:43:34;;;;;;;14.07;10.63;;;;;;;;;;5056470;28;20032;-74
2022/04/24 03:46:00;;;;;;;15.15;10.60;;;;;;;;;;5056125;28;20074;-74
2022/04/24 03:48:25;;;;;;;18.33;11.60;;;;;;;;;;5074694;28;20479;-75
2022/04/24 03:50:51;;;;;;;20.05;12.57;;;;;;;;;;5074647;28;20500;-75
2022/04/24 03:53:16;;;;;;;23.60;13.60;;;;;;;;;;5074445;28;20056;-77
2022/04/24 03:55:42;;;;;;;22.42;12.35;;;;;;;;;;5075543;28;20017;-76
2022/04/24 03:58:07;;;;;;;24.15;12.48;;;;;;;;;;5075330;28;20100;-77
2022/04/24 04:00:32;;;;;;;24.38;13.02;;;;;;;;;;5075524;28;20066;-77
2022/04/24 04:02:58;;;;;;;22.55;11.70;;;;;;;;;;5074122;28;20460;-74
2022/04/24 04:05:23;;;;;;;21.05;11.07;;;;;;;;;;5056036;28;20087;-72
2022/04/24 04:07:49;;;;;;;20.33;11.73;;;;;;;;;;5074110;28;20111;-73
2022/04/24 04:10:14;;;;;;;15.38;11.18;;;;;;;;;;5074119;28;20024;-73
2022/04/24 04:12:40;;;;;;;16.08;10.35;;;;;;;;;;5074021;28;20052;-73
2022/04/24 04:15:06;;;;;;;14.63;10.10;;;;;;;;;;5056229;28;20020;-73
2022/04/24 04:17:32;;;;;;;12.60;9.70;;;;;;;;;;5057130;28;20032;-80
2022/04/24 04:19:59;;;;;;;14.25;9.95;;;;;;;;;;5074947;28;20460;-79
2022/04/24 04:22:25;;;;;;;13.23;10.75;;;;;;;;;;5074925;28;20107;-81
2022/04/24 04:24:52;;;;;;;13.63;10.90;;;;;;;;;;5074651;28;20044;-81
2022/04/24 04:27:18;;;;;;;12.88;10.50;;;;;;;;;;5074839;28;20391;-76
2022/04/24 04:29:44;;;;;;;15.10;10.90;;;;;;;;;;5074616;28;20039;-76
2022/04/24 04:32:10;;;;;;;13.30;10.38;;;;;;;;;;5074570;28;20028;-74
2022/04/24 04:34:35;;;;;;;13.65;10.20;;;;;;;;;;5073035;28;20040;-75
2022/04/24 04:37:01;;;;;;;14.50;10.73;;;;;;;;;;5074079;28;20024;-79
2022/04/24 04:39:26;;;;;;;17.98;12.80;;;;;;;;;;5056269;28;20028;-82
2022/04/24 04:41:56;;;;;;;17.92;14.40;;;;;;;;;;5074145;28;20383;-78
2022/04/24 04:44:22;;;;;;;14.30;11.30;;;;;;;;;;5074490;28;20032;-77
2022/04/24 04:46:47;;;;;;;13.88;10.77;;;;;;;;;;5074235;28;20086;-77
2022/04/24 04:49:17;;;;;;;14.75;11.82;;;;;;;;;;5056120;28;20441;-82
2022/04/24 04:51:43;;;;;;;;;;;;;;;;;;5074624;28;20471;-77
2022/04/24 04:54:11;;;;;;;14.70;10.50;;;;;;;;;;5073979;28;19947;-74
2022/04/24 04:56:37;;;;;;;12.18;10.13;;;;;;;;;;5071895;28;20037;-75
2022/04/24 04:59:02;;;;;;;18.40;11.55;;;;;;;;;;5052918;28;20025;-75
2022/04/24 05:01:28;;;;;;;28.02;16.95;;;;;;;;;;5070762;28;20024;-75
2022/04/24 05:03:53;;;;;;;17.95;12.82;;;;;;;;;;5070639;28;20036;-75
2022/04/24 05:06:19;;;;;;;16.60;11.88;;;;;;;;;;5070515;28;20028;-81
2022/04/24 05:08:44;;;;;;;15.13;11.05;;;;;;;;;;5070543;28;20021;-83
2022/04/24 05:11:09;;;;;;;14.18;10.95;;;;;;;;;;5052888;28;20032;-73
2022/04/24 05:13:35;;;;;;;13.73;10.10;;;;;;;;;;5035640;28;20115;-75
2022/04/24 05:16:00;;;;;;;14.32;10.23;;;;;;;;;;5070246;28;20361;-75
2022/04/24 05:18:26;;;;;;;13.60;10.30;;;;;;;;;;5052492;28;20017;-76
2022/04/24 05:20:52;;;;;;;14.32;9.95;;;;;;;;;;5070350;28;20068;-76
2022/04/24 05:23:17;;;;;;;12.63;9.77;;;;;;;;;;5035547;28;20024;-77
2022/04/24 05:25:43;;;;;;;16.58;9.68;;;;;;;;;;5070225;28;20043;-77
2022/04/24 05:28:08;;;;;;;11.77;9.40;;;;;;;;;;5070547;28;20028;-78
2022/04/24 05:30:33;;;;;;;12.25;8.85;;;;;;;;;;5052024;28;20047;-78
2022/04/24 05:32:59;;;;;;;11.80;8.88;;;;;;;;;;5070134;28;20607;-78
2022/04/24 05:35:24;;;;;;;10.90;9.43;;;;;;;;;;5051688;28;20116;-77
2022/04/24 05:37:50;;;;;;;11.05;9.15;;;;;;;;;;5069260;28;20380;-81
2022/04/24 05:40:16;;;;;;;9.35;8.35;;;;;;;;;;5051175;28;20089;-81
2022/04/24 05:42:49;;;;;;;11.57;9.10;;;;;;;;;;5069132;28;20033;-78
2022/04/24 05:45:18;;;;;;;9.07;7.95;;;;;;;;;;5050765;28;20039;-78
2022/04/24 05:47:43;;;;;;;13.55;9.73;;;;;;;;;;5070218;28;20020;-81
2022/04/24 05:50:08;;;;;;;62.13;42.83;;;;;;;;;;5055235;28;20043;-75
2022/04/24 05:52:36;;;;;;;29.83;26.70;;;;;;;;;;5073195;28;20017;-77
2022/04/24 05:55:01;;;;;;;13.13;11.43;;;;;;;;;;5055015;28;20024;-77
2022/04/24 05:57:28;;;;;;;19.63;17.48;;;;;;;;;;5055117;28;20016;-76
2022/04/24 05:59:53;;;;;;;15.40;13.80;;;;;;;;;;5051728;28;20475;-77
2022/04/24 06:02:19;;;;;;;15.13;13.55;;;;;;;;;;5053908;28;20051;-77
2022/04/24 06:04:44;;;;;;;14.18;10.65;;;;;;;;;;5071948;28;20400;-77
2022/04/24 06:07:10;;;;;;;12.07;10.77;;;;;;;;;;5054382;28;20082;-77
2022/04/24 06:09:35;;;;;;;11.40;10.25;;;;;;;;;;5073076;28;20542;-78
2022/04/24 06:12:01;;;;;;;10.23;9.13;;;;;;;;;;5073157;28;20024;-77
2022/04/24 06:14:27;;;;;;;9.45;8.35;;;;;;;;;;5072707;28;20029;-77
2022/04/24 06:16:52;;;;;;;11.85;9.35;;;;;;;;;;5072813;28;20460;-78
2022/04/24 06:19:17;;;;;;;10.55;9.00;;;;;;;;;;5072761;28;20036;-76
2022/04/24 06:21:43;;;;;;;12.40;10.83;;;;;;;;;;5072840;28;20119;-76
2022/04/24 06:24:08;;;;;;;10.38;9.10;;;;;;;;;;5072533;28;20349;-75
2022/04/24 06:26:33;;;;;;;10.85;8.48;;;;;;;;;;5054495;28;20024;-76
2022/04/24 06:28:59;;;;;;;10.38;8.93;;;;;;;;;;5072514;28;20094;-76
2022/04/24 06:31:24;;;;;;;10.20;9.20;;;;;;;;;;5072554;28;20063;-75
2022/04/24 06:33:49;;;;;;;11.43;9.00;;;;;;;;;;5055433;28;20331;-75
2022/04/24 06:36:15;;;;;;;10.90;9.80;;;;;;;;;;5051167;28;20040;-75
2022/04/24 06:38:40;;;;;;;29.58;16.75;;;;;;;;;;5052485;28;20036;-75
2022/04/24 06:41:05;;;;;;;22.40;13.40;;;;;;;;;;5031680;28;20032;-75
2022/04/24 06:43:31;;;;;;;17.55;10.43;;;;;;;;;;5052145;28;20025;-75
2022/04/24 06:45:56;;;;;;;13.05;10.10;;;;;;;;;;5051487;28;20531;-75
2022/04/24 06:48:21;;;;;;;15.52;11.82;;;;;;;;;;5051664;28;20036;-74
2022/04/24 06:50:47;;;;;;;15.10;13.48;;;;;;;;;;5033504;28;20111;-75
2022/04/24 06:53:13;;;;;;;14.13;11.07;;;;;;;;;;5051856;28;20037;-73
2022/04/24 06:55:39;;;;;;;11.95;9.73;;;;;;;;;;5051458;28;20021;-74
2022/04/24 06:58:05;;;;;;;14.75;10.90;;;;;;;;;;5051889;28;20563;-78
2022/04/24 07:00:32;;;;;;;13.20;10.27;;;;;;;;;;5051850;28;20044;-75
2022/04/24 07:02:57;;;;;;;13.63;10.43;;;;;;;;;;5051513;28;20078;-78
2022/04/24 07:05:27;;;;;;;13.95;11.48;;;;;;;;;;5033319;28;20017;-75
2022/04/24 07:07:53;;;;;;;13.20;9.25;;;;;;;;;;5051984;28;20040;-78
2022/04/24 07:10:19;;;;;;;10.32;9.25;;;;;;;;;;5051366;28;20131;-78
2022/04/24 07:12:45;;;;;;;11.77;10.20;;;;;;;;;;5051328;28;20374;-78
2022/04/24 07:15:10;;;;;;;11.15;9.70;;;;;;;;;;5051078;28;20028;-78
2022/04/24 07:17:36;;;;;;;21.20;12.88;;;;;;;;;;5033673;28;20029;-75
2022/04/24 07:20:01;;;;;;;29.23;16.48;;;;;;;;;;5033404;28;20469;-77
2022/04/24 07:22:26;;;;;;;23.63;14.98;;;;;;;;;;5051275;28;20502;-78
2022/04/24 07:24:51;;;;;;;17.85;12.27;;;;;;;;;;5050916;28;20028;-78
2022/04/24 07:27:17;;;;;;;14.85;11.38;;;;;;;;;;5033579;28;20116;-78
2022/04/24 07:29:42;;;;;;;20.75;14.18;;;;;;;;;;5032834;28;20029;-77
2022/04/24 07:32:08;;;;;;;16.40;12.02;;;;;;;;;;5051131;28;20029;-78
2022/04/24 07:34:33;;;;;;;21.95;15.07;;;;;;;;;;5051624;28;20043;-78
2022/04/24 07:36:59;;;;;;;28.20;16.58;;;;;;;;;;5052599;28;20033;-77
2022/04/24 07:39:24;;;;;;;28.40;15.20;;;;;;;;;;5052856;28;20037;-78
2022/04/24 07:41:49;;;;;;;23.33;13.60;;;;;;;;;;5051426;28;20463;-78
2022/04/24 07:44:15;;;;;;;20.25;13.57;;;;;;;;;;5032923;28;20033;-78
2022/04/24 07:46:40;;;;;;;14.02;11.50;;;;;;;;;;5050376;28;20032;-78
2022/04/24 07:49:05;;;;;;;124.22;77.15;;;;;;;;;;5051453;28;20388;-79
2022/04/24 07:51:31;;;;;;;156.68;93.55;;;;;;;;;;5050532;28;20044;-79
2022/04/24 07:53:56;;;;;;;19.95;16.00;;;;;;;;;;5032704;28;20024;-79
2022/04/24 07:56:21;;;;;;;18.50;11.38;;;;;;;;;;5032779;28;20059;-80
2022/04/24 07:58:47;;;;;;;16.88;11.10;;;;;;;;;;5050346;28;20021;-79
2022/04/24 08:01:16;;;;;;;20.75;14.80;;;;;;;;;;5050789;28;20021;-79
2022/04/24 08:03:42;;;;;;;48.90;39.78;;;;;;;;;;5051319;28;20122;-78
2022/04/24 08:06:08;;;;;;;24.00;19.70;;;;;;;;;;5050937;28;20067;-75
2022/04/24 08:08:33;;;;;;;19.52;11.77;;;;;;;;;;5032513;28;20056;-75
2022/04/24 08:10:58;;;;;;;31.70;18.58;;;;;;;;;;5048785;28;20457;-75
2022/04/24 08:13:24;;;;;;;37.53;19.77;;;;;;;;;;5051280;28;20027;-76
2022/04/24 08:15:50;;;;;;;63.25;32.80;;;;;;;;;;5049457;28;20135;-75
2022/04/24 08:18:16;;;;;;;55.58;29.33;;;;;;;;;;5050636;28;20096;-76
2022/04/24 08:20:43;;;;;;;70.68;43.67;;;;;;;;;;5032068;28;20037;-76
2022/04/24 08:23:10;;;;;;;23.52;16.33;;;;;;;;;;5049200;28;20028;-76
2022/04/24 08:25:36;;;;;;;31.77;17.17;;;;;;;;;;5031789;28;20041;-76
2022/04/24 08:28:05;;;;;;;33.45;21.42;;;;;;;;;;5032292;28;20550;-76
2022/04/24 08:30:30;;;;;;;37.00;29.38;;;;;;;;;;5050438;28;20043;-76
2022/04/24 08:32:55;;;;;;;34.58;26.95;;;;;;;;;;5049984;28;20522;-76
2022/04/24 08:35:21;;;;;;;23.13;20.80;;;;;;;;;;5049683;28;20029;-76
2022/04/24 08:37:47;;;;;;;19.38;14.13;;;;;;;;;;5049765;28;20855;-76
2022/04/24 08:40:13;;;;;;;22.02;14.77;;;;;;;;;;5048319;28;20709;-76
2022/04/24 08:42:40;;;;;;;19.85;11.80;;;;;;;;;;5049864;28;20070;-76
2022/04/24 08:45:07;;;;;;;126.72;52.28;;;;;;;;;;5049684;28;20049;-76
2022/04/24 08:47:32;;;;;;;13.10;10.77;;;;;;;;;;5050338;28;20112;-77
2022/04/24 08:49:58;;;;;;;18.75;16.85;;;;;;;;;;5028426;28;20128;-76
2022/04/24 08:52:24;;;;;;;15.60;13.65;;;;;;;;;;5049595;28;20136;-76
2022/04/24 08:54:50;;;;;;;23.60;16.65;;;;;;;;;;5049179;28;20141;-76
2022/04/24 08:57:17;;;;;;;24.77;19.23;;;;;;;;;;5049639;28;20025;-76
2022/04/24 08:59:42;;;;;;;22.65;19.15;;;;;;;;;;5049454;28;20116;-77
2022/04/24 09:02:09;;;;;;;16.65;14.30;;;;;;;;;;5049526;28;20108;-77
2022/04/24 09:04:35;;;;;;;14.48;11.77;;;;;;;;;;5030890;28;20063;-77
2022/04/24 09:07:05;;;;;;;31.40;27.95;;;;;;;;;;5049193;28;20440;-77
2022/04/24 09:09:31;;;;;;;;;;;;;;;;;;5049893;28;20131;-78
2022/04/24 09:12:10;;;;;;;35.95;25.23;;;;;;;;;;5049427;28;20000;-79
2022/04/24 09:14:35;;;;;;;24.00;13.90;;;;;;;;;;5048815;28;20048;-70
2022/04/24 09:17:20;;;;;;;25.38;18.17;;;;;;;;;;5030837;28;20408;-76
2022/04/24 09:19:45;;;;;;;27.48;18.92;;;;;;;;;;5031092;28;20366;-71
2022/04/24 09:22:11;;;;;;;21.85;13.02;;;;;;;;;;5031293;28;20056;-72
2022/04/24 09:24:59;;;;;;;29.27;15.43;;;;;;;;;;5048611;28;20427;-71
2022/04/24 09:27:28;;;;;;;21.13;16.17;;;;;;;;;;5049242;28;20041;-74
2022/04/24 09:30:00;;;;;;;32.90;22.27;;;;;;;;;;5049063;28;20029;-74
2022/04/24 09:32:30;;;;;;;24.80;18.67;;;;;;;;;;5030913;28;20032;-74
2022/04/24 09:34:56;;;;;;;30.45;21.20;;;;;;;;;;5048295;28;20029;-74
2022/04/24 09:37:22;;;;;;;22.08;17.05;;;;;;;;;;5048764;28;20475;-74
2022/04/24 09:39:48;;;;;;;22.38;15.20;;;;;;;;;;5048714;28;20124;-74
2022/04/24 09:42:14;;;;;;;22.40;13.98;;;;;;;;;;5048952;28;20484;-74
2022/04/24 09:44:40;;;;;;;34.58;22.65;;;;;;;;;;5030582;28;20431;-74
2022/04/24 09:47:06;;;;;;;23.33;15.05;;;;;;;;;;5048761;28;20025;-74
2022/04/24 09:49:35;;;;;;;26.23;15.32;;;;;;;;;;5049009;28;20045;-74
2022/04/24 09:52:01;;;;;;;28.95;19.85;;;;;;;;;;5030688;28;20449;-74
2022/04/24 09:54:27;;;;;;;28.92;17.83;;;;;;;;;;5030434;28;20497;-74
2022/04/24 09:56:53;;;;;;;29.10;19.42;;;;;;;;;;5048750;28;20013;-74
2022/04/24 09:59:19;;;;;;;29.63;17.90;;;;;;;;;;5030919;28;20423;-74
2022/04/24 10:01:45;;;;;;;27.70;17.80;;;;;;;;;;5048610;28;20029;-74
2022/04/24 10:04:10;;;;;;;20.70;14.85;;;;;;;;;;5030326;28;20036;-74
2022/04/24 10:06:36;;;;;;;18.55;12.80;;;;;;;;;;5048492;28;20563;-74
2022/04/24 10:09:04;;;;;;;20.80;14.27;;;;;;;;;;5050732;28;20033;-74
2022/04/24 10:11:30;;;;;;;28.15;19.40;;;;;;;;;;5052107;28;20477;-74
2022/04/24 10:13:58;;;;;;;37.30;20.45;;;;;;;;;;5033805;28;20129;-74
2022/04/24 10:16:37;;;;;;;25.88;18.63;;;;;;;;;;5051777;28;20045;-74
2022/04/24 10:19:23;;;;;;;19.70;14.55;;;;;;;;;;5033738;28;20127;-74
2022/04/24 10:21:57;;;;;;;24.90;16.67;;;;;;;;;;5032597;28;20041;-74
2022/04/24 10:24:23;;;;;;;22.48;18.08;;;;;;;;;;5033262;28;20488;-73
2022/04/24 10:26:59;;;;;;;15.50;13.90;;;;;;;;;;5050490;28;20048;-73
2022/04/24 10:29:25;;;;;;;18.30;14.60;;;;;;;;;;5033960;28;20124;-74
2022/04/24 10:31:51;;;;;;;22.48;15.93;;;;;;;;;;5052239;28;20685;-74
2022/04/24 10:34:18;;;;;;;21.10;13.98;;;;;;;;;;5033675;28;20041;-74
2022/04/24 10:36:56;;;;;;;18.73;13.32;;;;;;;;;;5049663;28;20028;-74
2022/04/24 10:39:22;;;;;;;68.25;39.08;;;;;;;;;;5049081;28;20064;-74
2022/04/24 10:41:58;;;;;;;40.97;27.85;;;;;;;;;;5030199;28;20032;-74
2022/04/24 10:44:23;;;;;;;191.63;127.95;;;;;;;;;;5029969;28;20128;-74
2022/04/24 10:46:49;;;;;;;35.08;27.30;;;;;;;;;;5049643;28;20112;-74
2022/04/24 10:49:16;;;;;;;41.95;33.75;;;;;;;;;;5052488;28;20065;-74
2022/04/24 10:51:43;;;;;;;41.38;33.55;;;;;;;;;;5052459;28;20025;-73
2022/04/24 10:54:10;;;;;;;25.33;20.08;;;;;;;;;;5053542;28;20053;-74
2022/04/24 10:56:36;;;;;;;28.85;22.88;;;;;;;;;;5034364;28;20064;-74
2022/04/24 10:59:08;;;;;;;22.33;17.08;;;;;;;;;;5052782;28;20029;-72
2022/04/24 11:01:35;;;;;;;30.45;27.23;;;;;;;;;;5052617;28;20033;-75
2022/04/24 11:04:07;;;;;;;24.17;20.58;;;;;;;;;;5052932;28;20045;-74
2022/04/24 11:06:33;;;;;;;30.70;27.50;;;;;;;;;;5050897;28;20500;-77
2022/04/24 11:09:07;;;;;;;21.10;18.92;;;;;;;;;;5052286;28;20447;-75
2022/04/24 11:11:33;;;;;;;25.23;19.20;;;;;;;;;;5051307;28;20551;-75
2022/04/24 11:14:02;;;;;;;43.65;35.08;;;;;;;;;;5052369;28;20025;-76
2022/04/24 11:16:27;;;;;;;23.58;21.15;;;;;;;;;;5051886;28;20108;-75
2022/04/24 11:18:53;;;;;;;21.17;19.08;;;;;;;;;;5034703;28;20100;-81
2022/04/24 11:21:21;;;;;;;19.60;17.40;;;;;;;;;;5021050;28;20036;-76
2022/04/24 11:23:47;;;;;;;24.50;21.10;;;;;;;;;;5037217;28;20013;-76
2022/04/24 11:26:12;;;;;;;21.80;19.23;;;;;;;;;;5055895;28;20025;-76
2022/04/24 11:28:39;;;;;;;22.52;17.25;;;;;;;;;;5055534;28;20028;-76
2022/04/24 11:31:10;;;;;;;26.30;19.80;;;;;;;;;;5055557;28;20408;-76
2022/04/24 11:33:36;;;;;;;34.35;27.33;;;;;;;;;;5055549;28;20036;-76
2022/04/24 11:36:04;;;;;;;30.13;24.67;;;;;;;;;;5055632;28;20037;-75
2022/04/24 11:38:29;;;;;;;32.35;28.85;;;;;;;;;;5055571;28;20033;-76
2022/04/24 11:40:54;;;;;;;29.75;26.58;;;;;;;;;;5037892;28;20465;-76
2022/04/24 11:43:20;;;;;;;22.67;20.27;;;;;;;;;;5055540;28;20432;-76
2022/04/24 11:51:24;;;;;;;24.85;22.30;;;;;;;;;;5056355;28;20029;-75
2022/04/24 11:53:50;;;;;;;20.95;18.77;;;;;;;;;;5037742;28;20090;-75
2022/04/24 11:56:16;;;;;;;16.38;14.88;;;;;;;;;;5055627;28;20032;-75
2022/04/24 11:58:43;;;;;;;17.60;15.77;;;;;;;;;;5053667;28;20074;-75
2022/04/24 12:01:10;;;;;;;19.40;14.77;;;;;;;;;;5053108;28;20021;-75
2022/04/24 12:03:36;;;;;;;14.02;10.68;;;;;;;;;;5033895;28;20013;-75
2022/04/24 12:06:06;;;;;;;12.43;11.10;;;;;;;;;;5052197;28;20054;-75
2022/04/24 12:08:45;;;;;;;11.83;10.63;;;;;;;;;;5053303;28;20353;-75
2022/04/24 12:11:24;;;;;;;12.18;10.98;;;;;;;;;;5035692;28;20120;-75
2022/04/24 12:14:02;;;;;;;12.57;10.60;;;;;;;;;;5052979;28;20059;-75
2022/04/24 12:16:27;;;;;;;12.45;11.15;;;;;;;;;;5052535;28;20039;-74
2022/04/24 12:18:57;;;;;;;13.05;11.63;;;;;;;;;;5052976;28;20018;-74
2022/04/24 12:21:23;;;;;;;15.30;13.73;;;;;;;;;;5053026;28;20021;-75
2022/04/24 12:23:51;;;;;;;9.52;8.63;;;;;;;;;;5034957;28;20040;-75
2022/04/24 12:26:17;;;;;;;11.57;9.35;;;;;;;;;;5052812;28;20095;-75
2022/04/24 12:28:42;;;;;;;10.20;9.20;;;;;;;;;;5053793;28;20492;-75
2022/04/24 12:31:18;;;;;;;9.48;8.55;;;;;;;;;;5055018;28;20059;-75
2022/04/24 12:33:45;;;;;;;8.93;8.00;;;;;;;;;;5036895;28;20047;-74
2022/04/24 12:36:14;;;;;;;10.35;9.02;;;;;;;;;;5055001;28;20368;-75
2022/04/24 12:38:40;;;;;;;12.23;10.45;;;;;;;;;;5054943;28;20033;-75
2022/04/24 12:41:09;;;;;;;15.65;14.25;;;;;;;;;;5054602;28;20104;-75
2022/04/24 12:43:34;;;;;;;13.63;12.02;;;;;;;;;;5054865;28;20055;-75
2022/04/24 12:45:59;;;;;;;15.25;11.65;;;;;;;;;;5054569;28;20464;-75
2022/04/24 12:48:25;;;;;;;12.30;11.00;;;;;;;;;;5053316;28;20037;-75
2022/04/24 12:50:51;;;;;;;12.13;10.75;;;;;;;;;;5036499;28;20029;-75
2022/04/24 12:53:19;;;;;;;18.85;16.67;;;;;;;;;;5054701;28;20017;-75
2022/04/24 12:55:45;;;;;;;36.42;20.60;;;;;;;;;;5036648;28;20021;-75
2022/04/24 12:58:14;;;;;;;10.95;9.85;;;;;;;;;;5054300;28;20357;-75
2022/04/24 13:00:40;;;;;;;15.52;11.52;;;;;;;;;;5054311;28;20024;-75
2022/04/24 13:03:06;;;;;;;12.40;11.10;;;;;;;;;;5054205;28;20037;-75
2022/04/24 13:05:31;;;;;;;12.60;11.00;;;;;;;;;;5054467;28;20021;-74
2022/04/24 13:07:57;;;;;;;26.77;18.42;;;;;;;;;;5054130;28;20040;-75
2022/04/24 13:10:25;;;;;;;29.45;23.05;;;;;;;;;;5053938;28;20377;-74
2022/04/24 13:12:51;;;;;;;19.83;16.80;;;;;;;;;;5054357;28;20410;-73
2022/04/24 13:15:16;;;;;;;25.73;16.98;;;;;;;;;;5054013;28;20472;-74
2022/04/24 13:20:25;;;;;;;15.88;11.15;;;;;;;;;;5054186;28;20043;-74
2022/04/24 13:22:51;;;;;;;11.30;10.13;;;;;;;;;;5054184;28;20021;-74
2022/04/24 13:25:16;;;;;;;12.00;10.70;;;;;;;;;;5054353;28;20260;-74
2022/04/24 13:27:41;;;;;;;11.52;10.32;;;;;;;;;;5054112;28;20028;-74
2022/04/24 13:30:09;;;;;;;11.48;9.77;;;;;;;;;;5053981;28;20492;-74
2022/04/24 13:32:34;;;;;;;12.93;9.98;;;;;;;;;;5053795;28;20053;-74
2022/04/24 13:35:00;;;;;;;12.73;11.38;;;;;;;;;;5053752;28;20031;-75
2022/04/24 13:40:09;;;;;;;8.48;7.68;;;;;;;;;;5053907;28;20032;-73
2022/04/24 13:42:35;;;;;;;10.95;9.30;;;;;;;;;;5035711;28;20021;-74
2022/04/24 13:45:00;;;;;;;13.80;11.13;;;;;;;;;;5053561;28;20037;-74
2022/04/24 13:47:25;;;;;;;9.20;8.20;;;;;;;;;;5053559;28;20021;-74
2022/04/24 13:49:51;;;;;;;16.10;12.18;;;;;;;;;;5053751;28;20041;-75
2022/04/24 13:52:17;;;;;;;11.18;9.30;;;;;;;;;;5052235;28;20179;-75
2022/04/24 13:54:42;;;;;;;12.15;9.18;;;;;;;;;;5053481;28;20060;-74
2022/04/24 13:57:07;;;;;;;8.45;7.28;;;;;;;;;;5053363;28;20043;-74
2022/04/24 13:59:33;;;;;;;13.82;12.40;;;;;;;;;;5053439;28;20069;-74
2022/04/24 14:02:00;;;;;;;10.68;9.18;;;;;;;;;;5053746;28;20524;-74
2022/04/24 14:04:25;;;;;;;8.27;7.47;;;;;;;;;;5035889;28;20090;-75
2022/04/24 14:06:51;;;;;;;9.27;8.40;;;;;;;;;;5053376;28;20029;-75
2022/04/24 14:09:16;;;;;;;7.97;7.18;;;;;;;;;;5053290;28;20350;-75
2022/04/24 14:11:43;;;;;;;7.45;6.72;;;;;;;;;;5036168;28;20027;-75
2022/04/24 14:14:09;;;;;;;9.65;8.68;;;;;;;;;;5035592;28;20037;-75
2022/04/24 14:16:34;;;;;;;14.07;11.52;;;;;;;;;;5053588;28;20074;-75
2022/04/24 14:18:59;;;;;;;15.90;13.65;;;;;;;;;;5053505;28;20102;-75
2022/04/24 14:21:26;;;;;;;18.40;15.82;;;;;;;;;;5053849;28;20009;-75
2022/04/24 14:23:51;;;;;;;13.50;11.65;;;;;;;;;;5057784;28;20056;-75
2022/04/24 14:26:16;;;;;;;16.27;12.13;;;;;;;;;;5056311;28;20472;-75
2022/04/24 14:28:42;;;;;;;10.77;9.73;;;;;;;;;;5057145;28;20349;-75